Time;durP1;ratioP1;P1;durP2;ratioP2;P2;SDS_P1;SDS_P2;PMS_P1;PMS_P2;Temp;Humidity;BMP_temperature;BMP_pressure;BME280_temperature;BME280_humidity;BME280_pressure;Samples;Min_cycle;Max_cycle;Signal;HPM_P1;HPM_P2
2021/12/25 00:00:17;;;;;;;;;;;6.50;99.90;;;;;;5134361;27;19980;-75
2021/12/25 00:02:43;;;;;;;;;;;6.50;99.90;;;;;;5134188;27;19911;-75
2021/12/25 00:05:09;;;;;;;;;;;6.40;99.90;;;;;;5134793;27;19915;-75
2021/12/25 00:07:35;;;;;;;;;;;6.30;99.90;;;;;;5134185;27;19980;-75
2021/12/25 00:10:00;;;;;;;;;;;6.30;99.90;;;;;;5134670;27;19954;-75
2021/12/25 00:12:27;;;;;;;;;;;6.30;99.90;;;;;;5133904;27;19907;-75
2021/12/25 00:14:52;;;;;;;;;;;6.30;99.90;;;;;;5134276;27;19990;-74
2021/12/25 00:17:18;;;;;;;;;;;6.30;99.90;;;;;;5134793;27;19998;-75
2021/12/25 00:19:44;;;;;;;;;;;6.40;99.90;;;;;;5115446;27;20272;-74
2021/12/25 00:22:09;;;;;;;;;;;6.50;99.90;;;;;;5116035;27;19919;-74
2021/12/25 00:24:35;;;;;;;;;;;6.60;99.90;;;;;;5133852;27;19915;-74
2021/12/25 00:27:08;;;;;;;;;;;6.80;99.90;;;;;;5134467;27;19942;-75
2021/12/25 00:32:32;;;;;;;;;;;7.00;99.90;;;;;;5134426;27;19952;-75
2021/12/25 00:34:57;;;;;;;;;;;7.10;99.90;;;;;;5134227;27;19914;-76
2021/12/25 00:37:23;;;;;;;;;;;7.20;99.90;;;;;;5133282;27;19907;-75
2021/12/25 00:39:51;;;;;;;;;;;7.20;99.90;;;;;;5133881;27;20464;-75
2021/12/25 00:42:16;;;;;;;;;;;7.30;99.90;;;;;;5133998;27;20414;-75
2021/12/25 00:44:42;;;;;;;;;;;7.30;99.90;;;;;;5133249;27;19950;-76
2021/12/25 00:47:08;;;;;;;;;;;7.30;99.90;;;;;;5133980;27;19907;-75
2021/12/25 00:49:33;;;;;;;;;;;7.40;99.90;;;;;;5132721;27;19963;-75
2021/12/25 00:51:59;;;;;;;;;;;7.30;99.90;;;;;;5134168;27;20348;-75
2021/12/25 00:54:25;;;;;;;;;;;7.40;99.90;;;;;;5133629;27;20012;-75
2021/12/25 00:56:50;;;;;;;;;;;7.40;99.90;;;;;;5133925;27;20268;-74
2021/12/25 00:59:16;;;;;;;;;;;7.40;99.90;;;;;;5134436;27;19960;-73
2021/12/25 01:01:43;;;;;;;;;;;7.40;99.90;;;;;;5133115;27;19903;-74
2021/12/25 01:04:08;;;;;;;;;;;7.50;99.90;;;;;;5135008;27;19907;-74
2021/12/25 01:06:34;;;;;;;;;;;7.40;99.90;;;;;;5133967;27;20280;-74
2021/12/25 01:08:59;;;;;;;;;;;7.40;99.90;;;;;;5133440;27;20267;-74
2021/12/25 01:11:27;;;;;;;;;;;7.30;99.90;;;;;;5133618;27;20055;-74
2021/12/25 01:14:02;;;;;;;;;;;7.30;99.90;;;;;;5134129;27;19907;-75
2021/12/25 01:21:53;;;;;;;;;;;7.40;99.90;;;;;;5134112;27;19907;-74
2021/12/25 01:35:28;;;;;;;;;;;8.00;99.90;;;;;;5133806;27;19915;-74
2021/12/25 01:38:21;;;;;;;;;;;8.20;99.90;;;;;;5131513;27;20030;-74
2021/12/25 01:48:50;;;;;;;;;;;8.60;99.90;;;;;;5132924;27;20416;-80
2021/12/25 01:51:16;;;;;;;;;;;8.60;99.90;;;;;;5134034;27;19908;-85
2021/12/25 01:53:41;;;;;;;;;;;8.70;99.90;;;;;;5132328;27;19908;-76
2021/12/25 01:56:07;;;;;;;;;;;8.70;99.90;;;;;;5133612;27;19907;-78
2021/12/25 01:58:33;;;;;;;;;;;8.80;99.90;;;;;;5132667;27;19908;-79
2021/12/25 02:01:00;;;;;;;;;;;8.80;99.90;;;;;;5115029;28;19907;-80
2021/12/25 02:03:26;;;;;;;;;;;8.90;99.90;;;;;;5132942;28;19912;-78
2021/12/25 02:05:52;;;;;;;;;;;9.10;99.90;;;;;;5132961;28;19947;-74
2021/12/25 02:08:18;;;;;;;;;;;9.10;99.90;;;;;;5133387;28;19958;-72
2021/12/25 02:10:43;;;;;;;;;;;9.10;99.90;;;;;;5132335;28;20384;-72
2021/12/25 02:13:11;;;;;;;;;;;9.20;99.90;;;;;;5133537;28;19907;-73
2021/12/25 02:15:37;;;;;;;;;;;9.20;99.90;;;;;;5132291;28;19907;-72
2021/12/25 02:18:57;;;;;;;;;;;9.20;99.90;;;;;;5133349;28;19914;-73
2021/12/25 02:21:01;;;;;;;;;;;9.20;99.90;;;;;;5126383;27;19940;-73
2021/12/25 02:23:27;;;;;;;;;;;9.20;99.90;;;;;;5137446;27;19979;-73
2021/12/25 02:25:54;;;;;;;;;;;9.20;99.90;;;;;;5136866;27;19961;-73
2021/12/25 02:28:20;;;;;;;;;;;9.20;99.90;;;;;;5137099;27;19911;-74
2021/12/25 02:30:47;;;;;;;;;;;9.20;99.90;;;;;;5136684;27;19918;-73
2021/12/25 02:33:13;;;;;;;;;;;9.20;99.90;;;;;;5137384;27;19907;-73
2021/12/25 02:35:39;;;;;;;;;;;9.20;99.90;;;;;;5136488;27;19960;-73
2021/12/25 02:38:04;;;;;;;;;;;9.10;99.90;;;;;;5137010;27;20276;-73
2021/12/25 02:40:30;;;;;;;;;;;9.10;99.90;;;;;;5136652;27;19907;-74
2021/12/25 02:42:56;;;;;;;;;;;9.20;99.90;;;;;;5136951;27;19958;-73
2021/12/25 02:45:22;;;;;;;;;;;9.20;99.90;;;;;;5136853;27;20364;-74
2021/12/25 02:47:52;;;;;;;;;;;9.20;99.90;;;;;;5135912;27;20006;-74
2021/12/25 02:50:25;;;;;;;;;;;9.20;99.90;;;;;;5137069;27;20340;-74
2021/12/25 02:52:51;;;;;;;;;;;9.20;99.90;;;;;;5136249;27;19930;-74
2021/12/25 02:55:17;;;;;;;;;;;9.20;99.90;;;;;;5136806;27;20268;-74
2021/12/25 02:57:49;;;;;;;;;;;9.20;99.90;;;;;;5117601;27;20374;-74
2021/12/25 03:00:15;;;;;;;;;;;9.20;99.90;;;;;;5136583;27;20355;-72
2021/12/25 03:02:40;;;;;;;;;;;9.20;99.90;;;;;;5136141;27;19907;-73
2021/12/25 03:05:06;;;;;;;;;;;9.20;99.90;;;;;;5136385;27;19914;-73
2021/12/25 03:07:31;;;;;;;;;;;9.20;99.90;;;;;;5136396;27;19919;-74
2021/12/25 03:09:57;;;;;;;;;;;9.30;99.90;;;;;;5139960;27;19912;-74
2021/12/25 03:12:32;;;;;;;;;;;9.20;99.90;;;;;;5140094;27;19907;-73
2021/12/25 03:15:08;;;;;;;;;;;9.30;99.90;;;;;;5136303;27;19960;-74
2021/12/25 03:17:34;;;;;;;;;;;9.30;99.90;;;;;;5136190;27;19915;-74
2021/12/25 03:20:00;;;;;;;;;;;9.30;99.90;;;;;;5136352;27;20328;-74
2021/12/25 03:22:26;;;;;;;;;;;9.30;99.90;;;;;;5118003;27;19954;-74
2021/12/25 03:24:51;;;;;;;;;;;9.30;99.90;;;;;;5135131;27;19990;-73
2021/12/25 03:27:17;;;;;;;;;;;9.30;99.90;;;;;;5135961;27;19962;-73
2021/12/25 03:29:43;;;;;;;;;;;9.30;99.90;;;;;;5135362;27;19951;-74
2021/12/25 03:32:09;;;;;;;;;;;9.30;99.90;;;;;;5135366;27;19907;-73
2021/12/25 03:34:35;;;;;;;;;;;9.30;99.90;;;;;;5135657;27;19911;-74
2021/12/25 03:37:01;;;;;;;;;;;9.30;99.90;;;;;;5135832;27;19952;-73
2021/12/25 03:39:27;;;;;;;;;;;9.30;99.90;;;;;;5135851;27;19935;-73
2021/12/25 03:41:52;;;;;;;;;;;9.30;99.90;;;;;;5135106;27;20460;-74
2021/12/25 03:44:18;;;;;;;;;;;9.20;99.90;;;;;;5135942;27;20361;-73
2021/12/25 03:46:44;;;;;;;;;;;9.20;99.90;;;;;;5135193;27;20407;-73
2021/12/25 03:53:04;;;;;;;;;;;9.20;99.90;;;;;;5117359;27;20034;-73
2021/12/25 03:58:00;;;;;;;;;;;9.10;99.90;;;;;;5099936;27;20518;-73
2021/12/25 04:00:30;;;;;;;;;;;9.20;99.90;;;;;;5135517;27;19914;-73
2021/12/25 04:03:00;;;;;;;;;;;9.10;99.90;;;;;;5134878;27;19957;-74
2021/12/25 04:05:30;;;;;;;;;;;9.20;99.90;;;;;;5135534;27;19951;-73
2021/12/25 04:10:21;;;;;;;;;;;9.10;99.90;;;;;;5135480;27;20007;-73
2021/12/25 04:12:47;;;;;;;;;;;9.10;99.90;;;;;;5134707;27;19907;-74
2021/12/25 04:15:13;;;;;;;;;;;9.10;99.90;;;;;;5117021;27;20261;-73
2021/12/25 04:17:38;;;;;;;;;;;9.10;99.90;;;;;;5134661;27;19930;-73
2021/12/25 04:20:04;;;;;;;;;;;9.10;99.90;;;;;;5134947;27;19933;-72
2021/12/25 04:22:40;;;;;;;;;;;9.10;99.90;;;;;;5135232;27;20022;-73
2021/12/25 04:25:06;;;;;;;;;;;9.00;99.90;;;;;;5135115;27;19907;-73
2021/12/25 04:27:32;;;;;;;;;;;9.00;99.90;;;;;;5135213;27;19911;-73
2021/12/25 04:30:17;;;;;;;;;;;8.90;99.90;;;;;;5134312;27;19994;-73
2021/12/25 05:02:16;;;;;;;;;;;9.10;99.90;;;;;;5133693;27;19957;-74
2021/12/25 05:04:47;;;;;;;;;;;9.10;99.90;;;;;;5115461;27;19914;-73
2021/12/25 05:07:13;;;;;;;;;;;9.20;99.90;;;;;;5134245;27;19908;-73
2021/12/25 05:09:39;;;;;;;;;;;9.20;99.90;;;;;;5134121;27;19911;-74
2021/12/25 05:12:06;;;;;;;;;;;9.20;99.90;;;;;;5133976;27;19911;-73
2021/12/25 05:14:32;;;;;;;;;;;9.20;99.90;;;;;;5134029;27;20368;-74
2021/12/25 05:16:57;;;;;;;;;;;9.20;99.90;;;;;;5133450;27;19946;-74
2021/12/25 05:19:24;;;;;;;;;;;9.30;99.90;;;;;;5133969;27;19946;-74
2021/12/25 05:21:50;;;;;;;;;;;9.30;99.90;;;;;;5133397;27;19964;-74
2021/12/25 05:24:15;;;;;;;;;;;9.20;99.90;;;;;;5134033;27;19907;-74
2021/12/25 05:26:41;;;;;;;;;;;9.20;99.90;;;;;;5133543;27;19907;-74
2021/12/25 05:29:07;;;;;;;;;;;9.30;99.90;;;;;;5133661;27;19912;-74
2021/12/25 05:31:35;;;;;;;;;;;9.30;99.90;;;;;;5133638;27;19919;-74
2021/12/25 05:34:00;;;;;;;;;;;9.30;99.90;;;;;;5132935;27;20505;-73
2021/12/25 05:36:27;;;;;;;;;;;9.30;99.90;;;;;;5133586;27;19907;-74
2021/12/25 05:38:58;;;;;;;;;;;9.30;99.90;;;;;;5133175;27;19908;-74
2021/12/25 05:41:24;;;;;;;;;;;9.30;99.90;;;;;;5133796;27;19954;-74
2021/12/25 05:43:50;;;;;;;;;;;9.30;99.90;;;;;;5133229;27;19996;-74
2021/12/25 05:46:15;;;;;;;;;;;9.30;99.90;;;;;;5133432;27;19913;-74
2021/12/25 05:48:41;;;;;;;;;;;9.30;99.90;;;;;;5133484;27;19919;-74
2021/12/25 05:51:06;;;;;;;;;;;9.30;99.90;;;;;;5132791;27;19911;-73
2021/12/25 05:53:32;;;;;;;;;;;9.30;99.90;;;;;;5133968;27;19914;-74
2021/12/25 05:55:58;;;;;;;;;;;9.30;99.90;;;;;;5131901;27;19914;-72
2021/12/25 05:58:24;;;;;;;;;;;9.30;99.90;;;;;;5133372;27;20261;-73
2021/12/25 06:00:49;;;;;;;;;;;9.30;99.90;;;;;;5132625;27;20267;-72
2021/12/25 06:03:16;;;;;;;;;;;9.30;99.90;;;;;;5133598;28;19907;-73
2021/12/25 06:05:41;;;;;;;;;;;9.30;99.90;;;;;;5133443;28;19912;-72
2021/12/25 06:08:07;;;;;;;;;;;9.30;99.90;;;;;;5132598;28;19922;-73
2021/12/25 06:10:33;;;;;;;;;;;9.30;99.90;;;;;;5133510;28;19921;-73
2021/12/25 06:12:59;;;;;;;;;;;9.30;99.90;;;;;;5114147;28;19908;-74
2021/12/25 06:15:26;;;;;;;;;;;9.30;99.90;;;;;;5133358;28;19907;-73
2021/12/25 06:17:52;;;;;;;;;;;9.40;99.90;;;;;;5132658;28;19908;-73
2021/12/25 06:20:18;;;;;;;;;;;9.30;99.90;;;;;;5133383;28;19942;-73
2021/12/25 06:22:44;;;;;;;;;;;9.30;99.90;;;;;;5132975;28;19907;-73
2021/12/25 06:25:10;;;;;;;;;;;9.40;99.90;;;;;;5133158;28;20406;-73
2021/12/25 06:27:35;;;;;;;;;;;9.40;99.90;;;;;;5133052;28;19962;-73
2021/12/25 06:30:01;;;;;;;;;;;9.40;99.90;;;;;;5132205;28;20287;-74
2021/12/25 06:32:26;;;;;;;;;;;9.40;99.90;;;;;;5133130;28;19915;-73
2021/12/25 06:34:52;;;;;;;;;;;9.30;99.90;;;;;;5132467;28;19908;-74
2021/12/25 06:37:18;;;;;;;;;;;9.40;99.90;;;;;;5133188;28;19908;-74
2021/12/25 06:39:45;;;;;;;;;;;9.40;99.90;;;;;;5133022;28;19907;-74
2021/12/25 06:42:10;;;;;;;;;;;9.40;99.90;;;;;;5132628;28;19914;-74
2021/12/25 06:44:36;;;;;;;;;;;9.40;99.90;;;;;;5133215;28;20352;-73
2021/12/25 06:47:02;;;;;;;;;;;9.40;99.90;;;;;;5132165;28;19907;-74
2021/12/25 06:49:28;;;;;;;;;;;9.30;99.90;;;;;;5132670;28;19926;-74
2021/12/25 06:51:54;;;;;;;;;;;9.30;99.90;;;;;;5132133;28;19964;-74
2021/12/25 06:54:20;;;;;;;;;;;9.30;99.90;;;;;;5133120;28;19973;-74
2021/12/25 06:56:47;;;;;;;;;;;9.30;99.90;;;;;;5132737;28;19939;-74
2021/12/25 06:59:13;;;;;;;;;;;9.30;99.90;;;;;;5132414;28;19908;-74
2021/12/25 07:01:38;;;;;;;;;;;9.30;99.90;;;;;;5132979;28;19930;-74
2021/12/25 07:04:06;;;;;;;;;;;9.30;99.90;;;;;;5131906;28;20364;-74
2021/12/25 07:06:32;;;;;;;;;;;9.20;99.90;;;;;;5132927;27;19907;-74
2021/12/25 07:08:58;;;;;;;;;;;9.20;99.90;;;;;;5135428;27;20253;-74
2021/12/25 07:11:23;;;;;;;;;;;9.20;99.90;;;;;;5136553;27;19966;-74
2021/12/25 07:13:51;;;;;;;;;;;9.10;99.90;;;;;;5136408;27;19911;-74
2021/12/25 07:16:16;;;;;;;;;;;9.20;99.90;;;;;;5136447;27;19907;-74
2021/12/25 07:18:42;;;;;;;;;;;9.10;99.90;;;;;;5118082;27;20056;-74
2021/12/25 07:21:08;;;;;;;;;;;9.10;99.90;;;;;;5138485;27;19933;-74
2021/12/25 07:23:33;;;;;;;;;;;9.20;99.90;;;;;;5120345;27;19907;-74
2021/12/25 07:25:59;;;;;;;;;;;9.10;99.90;;;;;;5136216;27;20339;-75
2021/12/25 07:28:25;;;;;;;;;;;9.10;99.90;;;;;;5136366;27;19919;-74
2021/12/25 07:30:50;;;;;;;;;;;9.10;99.90;;;;;;5135653;27;19911;-74
2021/12/25 07:33:19;;;;;;;;;;;9.10;99.90;;;;;;5135660;27;19998;-74
2021/12/25 07:35:45;;;;;;;;;;;9.10;99.90;;;;;;5135908;27;20379;-74
2021/12/25 07:38:10;;;;;;;;;;;9.00;99.90;;;;;;5135301;27;19968;-74
2021/12/25 07:40:36;;;;;;;;;;;9.00;99.90;;;;;;5135946;27;19907;-74
2021/12/25 07:43:02;;;;;;;;;;;9.00;99.90;;;;;;5134867;27;19915;-74
2021/12/25 07:45:28;;;;;;;;;;;9.00;99.90;;;;;;5135965;27;20394;-74
2021/12/25 07:48:02;;;;;;;;;;;9.00;99.90;;;;;;5134659;27;19911;-75
2021/12/25 07:50:29;;;;;;;;;;;8.90;99.90;;;;;;5136137;27;19976;-74
2021/12/25 07:52:56;;;;;;;;;;;8.90;99.90;;;;;;5116509;27;19967;-75
2021/12/25 07:55:22;;;;;;;;;;;8.90;99.90;;;;;;5117267;27;19907;-73
2021/12/25 07:57:47;;;;;;;;;;;8.90;99.90;;;;;;5135570;27;19908;-74
2021/12/25 08:00:14;;;;;;;;;;;8.90;99.90;;;;;;5134772;27;19940;-76
2021/12/25 08:02:41;;;;;;;;;;;8.90;99.90;;;;;;5135572;27;19908;-76
2021/12/25 08:05:06;;;;;;;;;;;8.90;99.90;;;;;;5134267;27;19908;-77
2021/12/25 08:07:32;;;;;;;;;;;8.80;99.90;;;;;;5135455;27;20428;-77
2021/12/25 08:10:11;;;;;;;;;;;8.80;99.90;;;;;;5134725;27;19911;-75
2021/12/25 08:12:37;;;;;;;;;;;8.80;99.90;;;;;;5135508;27;19958;-74
2021/12/25 08:15:02;;;;;;;;;;;8.80;99.90;;;;;;5134326;27;20280;-74
2021/12/25 08:17:28;;;;;;;;;;;8.80;99.90;;;;;;5134723;27;19914;-75
2021/12/25 08:19:53;;;;;;;;;;;8.80;99.90;;;;;;5134594;27;19911;-76
2021/12/25 08:22:19;;;;;;;;;;;8.80;99.90;;;;;;5134711;27;19907;-74
2021/12/25 08:24:46;;;;;;;;;;;8.80;99.90;;;;;;5135262;27;19908;-74
2021/12/25 08:27:12;;;;;;;;;;;8.80;99.90;;;;;;5134410;27;19908;-73
2021/12/25 08:29:37;;;;;;;;;;;8.80;99.90;;;;;;5116518;27;19915;-73
2021/12/25 08:32:04;;;;;;;;;;;8.80;99.90;;;;;;5134310;27;19918;-74
2021/12/25 08:34:29;;;;;;;;;;;8.80;99.90;;;;;;5134842;27;19908;-75
2021/12/25 08:36:55;;;;;;;;;;;8.80;99.90;;;;;;5134569;27;20264;-77
2021/12/25 08:39:20;;;;;;;;;;;8.80;99.90;;;;;;5134574;27;19907;-75
2021/12/25 08:41:46;;;;;;;;;;;8.80;99.90;;;;;;5134556;27;19908;-74
2021/12/25 08:47:15;;;;;;;;;;;8.80;99.90;;;;;;5070237;28;19904;-74
2021/12/25 08:49:41;;;;;;;;;;;8.80;99.90;;;;;;5087444;28;20007;-75
2021/12/25 08:52:09;;;;;;;;;;;8.80;99.90;;;;;;5090513;28;19915;-74
2021/12/25 08:54:35;;;;;;;;;;;8.80;99.90;;;;;;5090743;28;19919;-75
2021/12/25 08:57:01;;;;;;;;;;;8.80;99.90;;;;;;5090386;28;19908;-75
2021/12/25 08:59:27;;;;;;;;;;;8.70;99.90;;;;;;5091082;28;19992;-74
2021/12/25 09:01:53;;;;;;;;;;;8.80;99.90;;;;;;5090841;28;19908;-74
2021/12/25 09:04:19;;;;;;;;;;;8.70;99.90;;;;;;5090332;28;19974;-74
2021/12/25 09:06:44;;;;;;;;;;;8.70;99.90;;;;;;5091048;28;20373;-74
2021/12/25 09:09:10;;;;;;;;;;;8.80;99.90;;;;;;5090250;28;19916;-74
2021/12/25 09:11:36;;;;;;;;;;;8.70;99.90;;;;;;5087591;28;19913;-74
2021/12/25 09:14:02;;;;;;;;;;;8.80;99.90;;;;;;5081272;28;19919;-74
2021/12/25 09:16:28;;;;;;;;;;;8.80;99.90;;;;;;5079789;28;20070;-74
2021/12/25 09:18:53;;;;;;;;;;;8.80;99.90;;;;;;5135836;27;19907;-75
2021/12/25 09:21:19;;;;;;;;;;;8.70;99.90;;;;;;5147962;27;19907;-76
2021/12/25 09:23:45;;;;;;;;;;;8.70;99.90;;;;;;5154618;27;20386;-77
2021/12/25 09:26:10;;;;;;;;;;;8.70;99.90;;;;;;5154312;27;19908;-78
2021/12/25 09:28:36;;;;;;;;;;;8.70;99.90;;;;;;5154369;27;20267;-78
2021/12/25 09:31:02;;;;;;;;;;;8.70;99.90;;;;;;5152977;27;20299;-77
2021/12/25 09:33:30;;;;;;;;;;;8.70;99.90;;;;;;5137059;27;19907;-78
2021/12/25 09:35:56;;;;;;;;;;;8.70;99.90;;;;;;5136166;27;19907;-78
2021/12/25 09:38:21;;;;;;;;;;;8.70;99.90;;;;;;5135079;27;20005;-76
2021/12/25 09:40:47;;;;;;;;;;;8.70;99.90;;;;;;5154484;27;19914;-76
2021/12/25 09:43:14;;;;;;;;;;;8.70;99.90;;;;;;5147834;27;20344;-78
2021/12/25 09:45:39;;;;;;;;;;;8.70;99.90;;;;;;5142405;27;20370;-81
2021/12/25 09:48:05;;;;;;;;;;;8.70;99.90;;;;;;5142202;27;19923;-80
2021/12/25 09:50:33;;;;;;;;;;;8.70;99.90;;;;;;5146745;27;20208;-80
2021/12/25 09:52:59;;;;;;;;;;;8.70;99.90;;;;;;5164552;27;20382;-81
2021/12/25 09:55:25;;;;;;;;;;;8.70;99.90;;;;;;5170274;27;19980;-75
2021/12/25 09:57:50;;;;;;;;;;;8.70;99.90;;;;;;5155818;27;20371;-76
2021/12/25 10:00:18;;;;;;;;;;;8.70;99.90;;;;;;5153397;27;19968;-75
2021/12/25 10:02:45;;;;;;;;;;;8.70;99.90;;;;;;5136004;27;19978;-74
2021/12/25 10:05:11;;;;;;;;;;;8.70;99.90;;;;;;5153248;27;20276;-75
2021/12/25 10:07:37;;;;;;;;;;;8.70;99.90;;;;;;5153758;27;19907;-73
2021/12/25 10:10:05;;;;;;;;;;;8.70;99.90;;;;;;5153366;27;20378;-73
2021/12/25 10:12:35;;;;;;;;;;;8.70;99.90;;;;;;5154182;27;20023;-75
2021/12/25 10:15:01;;;;;;;;;;;8.80;99.90;;;;;;5135183;27;20252;-77
2021/12/25 10:17:30;;;;;;;;;;;8.70;99.90;;;;;;5152760;27;19914;-73
2021/12/25 10:20:00;;;;;;;;;;;8.80;99.90;;;;;;5153162;27;19960;-72
2021/12/25 10:22:26;;;;;;;;;;;8.80;99.90;;;;;;5152924;27;20408;-73
2021/12/25 10:25:15;;;;;;;;;;;8.80;99.90;;;;;;5153102;27;19907;-73
2021/12/25 10:27:49;;;;;;;;;;;8.80;99.90;;;;;;5153144;27;19907;-71
2021/12/25 10:30:15;;;;;;;;;;;8.80;99.90;;;;;;5152457;27;19968;-73
2021/12/25 10:32:40;;;;;;;;;;;8.80;99.90;;;;;;5153254;27;19907;-73
2021/12/25 10:35:15;;;;;;;;;;;8.80;99.90;;;;;;5152356;27;20359;-75
2021/12/25 10:37:41;;;;;;;;;;;8.80;99.90;;;;;;5153239;27;19907;-75
2021/12/25 10:40:23;;;;;;;;;;;8.90;99.90;;;;;;5151983;27;19907;-76
2021/12/25 10:42:49;;;;;;;;;;;8.80;99.90;;;;;;5156974;27;19907;-77
2021/12/25 10:45:14;;;;;;;;;;;8.80;99.90;;;;;;5156360;27;19918;-76
2021/12/25 10:47:40;;;;;;;;;;;8.80;99.90;;;;;;5156761;27;19908;-75
2021/12/25 10:50:14;;;;;;;;;;;8.80;99.90;;;;;;5155817;27;20436;-76
2021/12/25 10:52:44;;;;;;;;;;;8.80;99.90;;;;;;5156882;27;19907;-76
2021/12/25 10:55:15;;;;;;;;;;;8.80;99.90;;;;;;5137343;27;19918;-75
2021/12/25 10:58:07;;;;;;;;;;;8.80;99.90;;;;;;5156895;27;19915;-77
2021/12/25 11:00:33;;;;;;;;;;;8.80;99.90;;;;;;5150980;27;20006;-76
2021/12/25 11:03:03;;;;;;;;;;;8.80;99.90;;;;;;5156502;27;19907;-75
2021/12/25 11:05:47;;;;;;;;;;;8.70;99.90;;;;;;5156807;27;19907;-75
2021/12/25 11:08:18;;;;;;;;;;;8.80;99.90;;;;;;5155773;27;19919;-74
2021/12/25 11:10:44;;;;;;;;;;;8.80;99.90;;;;;;5156316;27;19907;-76
2021/12/25 11:13:29;;;;;;;;;;;8.80;99.90;;;;;;5156053;27;19907;-75
2021/12/25 11:16:03;;;;;;;;;;;8.80;99.90;;;;;;5156624;27;19911;-76
2021/12/25 11:18:29;;;;;;;;;;;8.80;99.90;;;;;;5156555;27;19907;-76
2021/12/25 11:20:55;;;;;;;;;;;8.80;99.90;;;;;;5156297;27;19908;-76
2021/12/25 11:23:21;;;;;;;;;;;8.80;99.90;;;;;;5155399;27;20382;-77
2021/12/25 11:25:46;;;;;;;;;;;8.80;99.90;;;;;;5156015;27;19950;-78
2021/12/25 11:28:13;;;;;;;;;;;8.80;99.90;;;;;;5155664;27;19964;-80
2021/12/25 11:30:43;;;;;;;;;;;8.80;99.90;;;;;;5156041;27;19907;-80
2021/12/25 11:33:09;;;;;;;;;;;8.80;99.90;;;;;;5155760;27;19911;-79
2021/12/25 11:35:35;;;;;;;;;;;8.80;99.90;;;;;;5137495;27;20363;-79
2021/12/25 11:38:03;;;;;;;;;;;8.80;99.90;;;;;;5156678;27;19907;-80
2021/12/25 11:40:30;;;;;;;;;;;8.80;99.90;;;;;;5156467;27;20055;-78
2021/12/25 11:42:57;;;;;;;;;;;8.80;99.90;;;;;;5156518;27;19907;-78
2021/12/25 11:45:26;;;;;;;;;;;8.80;99.90;;;;;;5137345;27;19907;-79
2021/12/25 11:47:53;;;;;;;;;;;8.80;99.90;;;;;;5156250;27;19915;-77
2021/12/25 11:50:22;;;;;;;;;;;8.80;99.90;;;;;;5155705;27;19930;-77
2021/12/25 11:53:04;;;;;;;;;;;8.80;99.90;;;;;;5155827;27;19907;-78
2021/12/25 11:58:19;;;;;;;;;;;8.80;99.90;;;;;;5156264;27;19959;-79
2021/12/25 12:00:49;;;;;;;;;;;8.80;99.90;;;;;;5156096;27;19917;-76
2021/12/25 12:03:33;;;;;;;;;;;8.80;99.90;;;;;;5155432;27;19938;-78
2021/12/25 12:05:59;;;;;;;;;;;8.80;99.90;;;;;;5137593;27;19952;-78
2021/12/25 12:08:24;;;;;;;;;;;8.80;99.90;;;;;;5155303;27;20278;-78
2021/12/25 12:10:51;;;;;;;;;;;8.80;99.90;;;;;;5156134;27;19917;-77
2021/12/25 12:13:26;;;;;;;;;;;8.80;99.90;;;;;;5155116;27;19907;-78
2021/12/25 12:15:57;;;;;;;;;;;8.80;99.90;;;;;;5137370;27;20363;-77
2021/12/25 12:18:26;;;;;;;;;;;8.80;99.90;;;;;;5136483;27;19907;-78
2021/12/25 12:20:56;;;;;;;;;;;8.80;99.90;;;;;;5137125;27;20288;-79
2021/12/25 12:26:39;;;;;;;;;;;8.80;99.90;;;;;;5130347;27;19959;-78
2021/12/25 12:29:04;;;;;;;;;;;8.80;99.90;;;;;;5137343;27;19914;-81
2021/12/25 12:31:33;;;;;;;;;;;8.80;99.90;;;;;;5136242;27;20497;-80
2021/12/25 12:33:59;;;;;;;;;;;8.80;99.90;;;;;;5135757;27;19907;-79
2021/12/25 12:36:25;;;;;;;;;;;8.80;99.90;;;;;;5127888;27;19918;-79
2021/12/25 12:38:55;;;;;;;;;;;8.80;99.90;;;;;;5137040;27;19914;-77
2021/12/25 12:41:26;;;;;;;;;;;8.80;99.90;;;;;;5135981;27;19975;-76
2021/12/25 12:44:03;;;;;;;;;;;8.80;99.90;;;;;;5136673;27;19967;-76
2021/12/25 12:46:43;;;;;;;;;;;8.80;99.90;;;;;;5154624;27;20080;-75
2021/12/25 12:49:09;;;;;;;;;;;8.80;99.90;;;;;;5154883;27;20348;-81
2021/12/25 12:51:35;;;;;;;;;;;8.70;99.90;;;;;;5155046;27;19911;-78
2021/12/25 12:54:01;;;;;;;;;;;8.80;99.90;;;;;;5155557;27;19955;-78
2021/12/25 12:56:27;;;;;;;;;;;8.70;99.90;;;;;;5154363;27;19907;-78
2021/12/25 12:58:54;;;;;;;;;;;8.80;99.90;;;;;;5155177;27;19907;-77
2021/12/25 13:01:20;;;;;;;;;;;8.70;99.90;;;;;;5135789;27;19962;-78
2021/12/25 13:03:46;;;;;;;;;;;8.70;99.90;;;;;;5155184;27;19914;-78
2021/12/25 13:06:14;;;;;;;;;;;8.80;99.90;;;;;;5153667;27;20283;-81
2021/12/25 13:08:42;;;;;;;;;;;8.70;99.90;;;;;;5154620;27;19911;-77
2021/12/25 13:11:14;;;;;;;;;;;8.70;99.90;;;;;;5155028;27;19950;-78
2021/12/25 13:13:50;;;;;;;;;;;8.70;99.90;;;;;;5150764;27;20329;-77
2021/12/25 13:16:16;;;;;;;;;;;8.70;99.90;;;;;;5132906;27;19991;-77
2021/12/25 13:18:43;;;;;;;;;;;8.70;99.90;;;;;;5115598;27;19908;-80
2021/12/25 13:21:10;;;;;;;;;;;8.70;99.90;;;;;;5133572;27;19914;-79
2021/12/25 13:23:42;;;;;;;;;;;8.70;99.90;;;;;;5115004;27;19961;-80
2021/12/25 13:26:09;;;;;;;;;;;8.70;99.90;;;;;;5133973;27;19915;-80
2021/12/25 13:28:39;;;;;;;;;;;8.60;99.90;;;;;;5114508;27;20840;-78
2021/12/25 13:31:06;;;;;;;;;;;8.70;99.90;;;;;;5133413;27;20395;-76
2021/12/25 13:33:34;;;;;;;;;;;8.70;99.90;;;;;;5132941;27;19908;-76
2021/12/25 13:36:05;;;;;;;;;;;8.70;99.90;;;;;;5115330;27;20268;-76
2021/12/25 13:38:47;;;;;;;;;;;8.70;99.90;;;;;;5132804;27;19907;-73
2021/12/25 13:41:14;;;;;;;;;;;8.60;99.90;;;;;;5132475;27;20299;-74
2021/12/25 13:43:39;;;;;;;;;;;8.70;99.90;;;;;;5133993;27;19907;-75
2021/12/25 13:46:05;;;;;;;;;;;8.70;99.90;;;;;;5152332;27;20279;-77
2021/12/25 13:48:38;;;;;;;;;;;8.60;99.90;;;;;;5135099;27;19925;-76
2021/12/25 13:51:03;;;;;;;;;;;8.70;99.90;;;;;;5155733;27;19997;-79
2021/12/25 13:53:31;;;;;;;;;;;8.60;99.90;;;;;;5154206;27;19957;-75
2021/12/25 13:55:57;;;;;;;;;;;8.70;99.90;;;;;;5154947;27;20351;-75
2021/12/25 13:58:26;;;;;;;;;;;8.70;99.90;;;;;;5135574;27;19911;-75
2021/12/25 14:00:52;;;;;;;;;;;8.70;99.90;;;;;;5154067;27;19911;-76
2021/12/25 14:03:19;;;;;;;;;;;8.60;99.90;;;;;;5153184;27;19960;-77
2021/12/25 14:05:47;;;;;;;;;;;8.70;99.90;;;;;;5153728;27;20003;-74
2021/12/25 14:08:13;;;;;;;;;;;8.70;99.90;;;;;;5153606;27;19918;-74
2021/12/25 14:10:41;;;;;;;;;;;8.70;99.90;;;;;;5153465;27;19957;-75
2021/12/25 14:13:12;;;;;;;;;;;8.60;99.90;;;;;;5135271;27;19911;-73
2021/12/25 14:15:40;;;;;;;;;;;8.60;99.90;;;;;;5152571;27;19911;-74
2021/12/25 14:18:05;;;;;;;;;;;8.60;99.90;;;;;;5157923;27;19978;-73
2021/12/25 14:20:33;;;;;;;;;;;8.60;99.90;;;;;;5157153;27;20356;-74
2021/12/25 14:23:04;;;;;;;;;;;8.60;99.90;;;;;;5157150;27;19990;-73
2021/12/25 14:25:31;;;;;;;;;;;8.60;99.90;;;;;;5157094;27;19953;-74
2021/12/25 14:28:05;;;;;;;;;;;8.60;99.90;;;;;;5157790;27;19915;-73
2021/12/25 14:30:32;;;;;;;;;;;8.60;99.90;;;;;;5156874;27;19919;-74
2021/12/25 14:32:58;;;;;;;;;;;8.60;99.90;;;;;;5157760;27;20011;-74
2021/12/25 14:35:23;;;;;;;;;;;8.60;99.90;;;;;;5138379;27;20001;-74
2021/12/25 14:37:57;;;;;;;;;;;8.60;99.90;;;;;;5157780;27;19919;-74
2021/12/25 14:40:24;;;;;;;;;;;8.60;99.90;;;;;;5156889;27;19907;-73
2021/12/25 14:42:58;;;;;;;;;;;8.60;99.90;;;;;;5157629;27;20006;-73
2021/12/25 14:45:25;;;;;;;;;;;8.60;99.90;;;;;;5156903;27;19914;-73
2021/12/25 14:47:55;;;;;;;;;;;8.60;99.90;;;;;;5157253;27;20266;-73
2021/12/25 14:50:25;;;;;;;;;;;8.60;99.90;;;;;;5156751;27;20006;-74
2021/12/25 14:53:05;;;;;;;;;;;8.60;99.90;;;;;;5157546;27;19914;-72
2021/12/25 14:56:01;;;;;;;;;;;8.60;99.90;;;;;;5156975;27;19907;-74
2021/12/25 14:58:31;;;;;;;;;;;8.60;99.90;;;;;;5134998;27;20064;-73
2021/12/25 15:01:03;;;;;;;;;;;8.50;99.90;;;;;;5157579;27;19939;-73
2021/12/25 15:03:28;;;;;;;;;;;8.60;99.90;;;;;;5156586;27;20324;-72
2021/12/25 15:05:55;;;;;;;;;;;8.50;99.90;;;;;;5156709;27;19911;-73
2021/12/25 15:08:20;;;;;;;;;;;8.60;99.90;;;;;;5137923;27;20065;-75
2021/12/25 15:10:46;;;;;;;;;;;8.50;99.90;;;;;;5157047;27;19911;-73
2021/12/25 15:13:17;;;;;;;;;;;8.50;99.90;;;;;;5156982;27;20367;-73
2021/12/25 15:16:02;;;;;;;;;;;8.50;99.90;;;;;;5156418;27;19998;-74
2021/12/25 15:18:33;;;;;;;;;;;8.50;99.90;;;;;;5156034;27;19907;-74
2021/12/25 15:21:06;;;;;;;;;;;8.50;99.90;;;;;;5157105;27;19983;-75
2021/12/25 15:23:32;;;;;;;;;;;8.50;99.90;;;;;;5156235;27;19907;-76
2021/12/25 15:26:10;;;;;;;;;;;8.50;99.90;;;;;;5156948;27;19914;-76
2021/12/25 15:28:37;;;;;;;;;;;8.50;99.90;;;;;;5154837;27;19922;-76
2021/12/25 15:31:12;;;;;;;;;;;8.50;99.90;;;;;;5156806;27;19918;-74
2021/12/25 15:34:04;;;;;;;;;;;8.50;99.90;;;;;;5155617;27;19908;-74
2021/12/25 15:36:32;;;;;;;;;;;8.50;99.90;;;;;;5150651;27;19907;-73
2021/12/25 15:39:07;;;;;;;;;;;8.50;99.90;;;;;;5156905;27;19907;-73
2021/12/25 15:41:33;;;;;;;;;;;8.60;99.90;;;;;;5155860;27;20370;-75
2021/12/25 15:43:58;;;;;;;;;;;8.50;99.90;;;;;;5156975;27;20005;-76
2021/12/25 15:46:24;;;;;;;;;;;8.50;99.90;;;;;;5155795;27;20379;-77
2021/12/25 15:48:49;;;;;;;;;;;8.60;99.90;;;;;;5156091;27;19975;-76